Time;durP1;ratioP1;P1;durP2;ratioP2;P2;SDS_P1;SDS_P2;PMS_P1;PMS_P2;Temp;Humidity;BMP_temperature;BMP_pressure;BME280_temperature;BME280_humidity;BME280_pressure;Samples;Min_cycle;Max_cycle;Signal;HPM_P1;HPM_P2
2022/05/04 00:02:54;;;;;;;10.10;5.82;;;;;;;8.69;72.66;101721.63;10436723;28;20120;-77
2022/05/04 00:07:54;;;;;;;15.02;6.68;;;;;;;8.66;72.53;101710.97;10447944;28;20139;-77
2022/05/04 00:12:55;;;;;;;13.73;5.63;;;;;;;8.64;72.58;101712.56;10453446;28;20429;-76
2022/05/04 00:17:55;;;;;;;11.25;5.57;;;;;;;8.55;72.65;101710.25;10451746;28;20106;-77
2022/05/04 00:22:56;;;;;;;11.65;5.68;;;;;;;8.58;72.97;101707.84;10451993;28;20392;-76
2022/05/04 00:27:56;;;;;;;13.38;5.65;;;;;;;8.56;71.83;101703.31;10436312;28;20061;-77
2022/05/04 00:32:57;;;;;;;21.13;6.63;;;;;;;8.48;71.79;101705.34;10452786;28;20496;-76
2022/05/04 00:37:57;;;;;;;11.40;4.85;;;;;;;8.56;72.20;101708.50;10401670;28;20037;-77
2022/05/04 00:42:58;;;;;;;7.93;5.45;;;;;;;8.48;71.32;101713.19;10436067;28;20056;-77
2022/05/04 00:47:58;;;;;;;14.85;5.93;;;;;;;8.44;71.97;101716.38;10420157;28;20512;-76
2022/05/04 00:52:59;;;;;;;21.70;6.82;;;;;;;8.37;71.46;101715.94;10435475;28;20115;-77
2022/05/04 01:03:18;;;;;;;13.05;6.85;;;;;;;8.27;71.22;101709.97;10438228;28;20521;-77
2022/05/04 01:08:19;;;;;;;10.85;5.63;;;;;;;8.27;71.08;101709.97;10450774;28;20037;-76
2022/05/04 01:13:20;;;;;;;13.10;5.72;;;;;;;8.26;70.88;101706.47;10433898;28;20163;-76
2022/05/04 01:18:20;;;;;;;13.18;5.78;;;;;;;8.18;71.75;101702.41;10416816;28;20033;-76
2022/05/04 01:23:21;;;;;;;8.82;5.55;;;;;;;8.08;72.04;101709.56;10439954;28;20079;-76
2022/05/04 01:28:21;;;;;;;13.98;7.00;;;;;;;8.05;72.45;101705.84;10416831;28;20077;-76
2022/05/04 01:33:22;;;;;;;16.10;6.50;;;;;;;7.96;72.28;101699.97;10424283;28;20127;-76
2022/05/04 01:38:22;;;;;;;16.65;6.80;;;;;;;7.90;73.07;101706.53;10440831;28;20128;-76
2022/05/04 01:43:23;;;;;;;15.15;6.18;;;;;;;7.96;71.67;101706.09;10459397;28;20106;-76
2022/05/04 01:48:23;;;;;;;17.10;6.40;;;;;;;7.87;71.78;101708.94;10457472;28;20106;-77
2022/05/04 01:53:24;;;;;;;16.95;6.72;;;;;;;7.73;72.91;101717.44;10458112;28;20025;-76
2022/05/04 01:58:24;;;;;;;17.20;6.55;;;;;;;7.61;73.92;101718.38;10440710;28;20045;-75
2022/05/04 02:03:25;;;;;;;15.35;7.15;;;;;;;7.60;73.56;101703.53;10457176;28;20499;-76
2022/05/04 02:08:25;;;;;;;14.65;5.70;;;;;;;7.62;73.65;101703.66;10477087;28;20087;-75
2022/05/04 02:13:26;;;;;;;20.20;7.05;;;;;;;7.59;73.06;101708.63;10498127;28;20049;-76
2022/05/04 02:18:26;;;;;;;13.00;5.35;;;;;;;7.56;72.90;101706.69;10499267;28;20197;-76
2022/05/04 02:23:27;;;;;;;16.88;7.15;;;;;;;7.67;72.50;101703.97;10479493;28;20496;-76
2022/05/04 02:28:27;;;;;;;13.10;7.57;;;;;;;7.69;72.95;101702.38;10495866;28;20068;-76
2022/05/04 02:33:28;;;;;;;12.43;7.53;;;;;;;7.46;74.00;101699.94;10496203;28;20089;-76
2022/05/04 02:38:29;;;;;;;13.32;6.10;;;;;;;7.31;74.69;101697.06;10497240;28;20028;-76
2022/05/04 02:43:29;;;;;;;14.20;7.78;;;;;;;7.28;74.93;101704.66;10495730;28;20043;-76
2022/05/04 02:48:30;;;;;;;16.10;8.23;;;;;;;7.34;74.08;101710.31;10498324;28;20055;-76
2022/05/04 02:53:30;;;;;;;19.80;6.35;;;;;;;7.23;73.63;101698.22;10496714;28;20466;-76
2022/05/04 02:58:31;;;;;;;16.05;7.45;;;;;;;6.91;74.89;101707.09;10495292;28;20052;-75
2022/05/04 03:03:31;;;;;;;16.05;8.85;;;;;;;6.50;76.11;101707.44;10494599;28;20039;-76
2022/05/04 03:08:32;;;;;;;20.10;7.65;;;;;;;6.45;76.25;101696.69;10466677;28;20045;-77
2022/05/04 03:13:34;;;;;;;12.40;6.90;;;;;;;6.33;76.66;101691.41;10436495;28;20183;-76
2022/05/04 03:18:34;;;;;;;13.48;8.50;;;;;;;6.04;77.12;101695.22;10438143;28;20540;-76
2022/05/04 03:23:35;;;;;;;17.25;6.05;;;;;;;5.76;78.08;101693.00;10454124;28;20131;-76
2022/05/04 03:28:36;;;;;;;18.23;7.75;;;;;;;5.65;79.06;101699.03;10455149;28;20056;-76
2022/05/04 03:33:36;;;;;;;14.57;6.80;;;;;;;5.23;79.33;101701.75;10436449;28;20479;-76
2022/05/04 03:38:37;;;;;;;19.08;6.80;;;;;;;4.81;80.60;101705.16;10436771;28;20052;-75
2022/05/04 03:43:37;;;;;;;26.00;7.78;;;;;;;4.55;81.53;101698.66;10453164;28;20051;-76
2022/05/04 03:48:38;;;;;;;15.98;7.70;;;;;;;4.46;82.95;101697.88;10416966;28;20035;-76
2022/05/04 03:53:38;;;;;;;15.95;8.57;;;;;;;4.38;83.30;101695.53;10431827;28;20071;-76
2022/05/04 03:58:39;;;;;;;18.33;7.85;;;;;;;4.41;84.38;101695.81;10420060;28;20428;-76
2022/05/04 04:03:39;;;;;;;16.80;7.25;;;;;;;4.50;84.31;101708.66;10435393;28;20064;-75
2022/05/04 04:08:40;;;;;;;13.27;8.65;;;;;;;4.52;84.25;101708.78;10459293;28;20492;-76
2022/05/04 04:13:40;;;;;;;18.60;10.00;;;;;;;4.70;84.57;101706.84;10468515;28;20045;-76
2022/05/04 04:18:41;;;;;;;21.48;9.30;;;;;;;4.95;84.85;101706.34;10481574;28;20024;-76
2022/05/04 04:23:41;;;;;;;16.85;9.88;;;;;;;5.21;84.88;101703.31;10492699;28;20041;-77
2022/05/04 04:28:42;;;;;;;17.50;8.48;;;;;;;5.46;84.66;101710.50;10462566;28;20033;-76
2022/05/04 04:33:42;;;;;;;14.38;7.40;;;;;;;5.75;83.79;101706.78;10488908;28;20060;-77
2022/05/04 04:38:43;;;;;;;18.13;9.55;;;;;;;5.95;83.26;101710.06;10454717;28;20021;-75
2022/05/04 04:43:43;;;;;;;16.65;8.18;;;;;;;6.21;81.74;101714.78;10466986;28;20072;-78
2022/05/04 04:48:44;;;;;;;16.80;7.18;;;;;;;6.54;78.81;101705.22;10489529;28;20178;-77
2022/05/04 04:53:44;;;;;;;17.27;7.60;;;;;;;6.80;77.75;101697.56;10494368;28;20040;-77
2022/05/04 04:58:45;;;;;;;18.52;9.65;;;;;;;6.94;76.09;101694.31;10496807;28;20024;-76
2022/05/04 05:03:45;;;;;;;14.60;7.22;;;;;;;7.02;76.00;101697.53;10483041;28;20068;-78
2022/05/04 05:08:48;;;;;;;17.77;7.03;;;;;;;7.16;75.79;101699.47;10483097;28;20072;-78
2022/05/04 05:19:07;;;;;;;15.68;7.10;;;;;;;7.42;75.54;101700.50;10498307;28;19920;-75
2022/05/04 05:24:08;;;;;;;14.30;7.40;;;;;;;7.64;73.94;101699.47;10498676;28;20388;-76
2022/05/04 05:29:08;;;;;;;21.02;9.05;;;;;;;7.84;71.85;101693.06;10499018;28;20043;-75
2022/05/04 05:34:09;;;;;;;17.08;6.85;;;;;;;8.08;70.66;101701.75;10494258;28;20078;-75
2022/05/04 05:39:10;;;;;;;11.40;5.78;;;;;;;8.57;70.01;101703.41;10500943;28;20032;-75
2022/05/04 05:44:10;;;;;;;19.52;6.95;;;;;;;9.66;65.18;101702.78;10498689;28;20083;-76
2022/05/04 05:49:11;;;;;;;15.93;6.07;;;;;;;11.05;60.50;101709.56;10499464;28;20116;-75
2022/05/04 05:54:11;;;;;;;16.58;6.65;;;;;;;12.29;56.87;101712.19;10481809;28;20162;-76
2022/05/04 05:59:12;;;;;;;13.20;6.22;;;;;;;12.10;55.88;101709.38;10497729;28;20538;-75
2022/05/04 06:04:13;;;;;;;14.70;6.20;;;;;;;11.19;58.96;101712.97;10498963;28;20021;-75
2022/05/04 06:09:13;;;;;;;15.25;6.35;;;;;;;10.63;60.40;101714.91;10492696;28;20064;-75
2022/05/04 06:14:14;;;;;;;14.32;7.40;;;;;;;10.49;61.45;101709.72;10465898;28;20033;-74
2022/05/04 06:19:14;;;;;;;19.20;7.00;;;;;;;10.71;61.37;101716.28;10497320;28;20456;-75
2022/05/04 06:24:15;;;;;;;15.60;6.82;;;;;;;11.57;58.80;101706.41;10479014;28;20087;-75
2022/05/04 06:29:15;;;;;;;12.75;6.13;;;;;;;12.50;56.99;101711.53;10497887;28;20064;-76
2022/05/04 06:34:16;;;;;;;18.63;7.32;;;;;;;14.23;52.12;101707.78;10494829;28;20637;-76
2022/05/04 06:39:16;;;;;;;29.77;7.53;;;;;;;16.20;47.38;101710.78;10497922;28;20033;-76
2022/05/04 06:44:17;;;;;;;12.43;6.38;;;;;;;17.49;43.88;101710.00;10497082;28;20064;-76
2022/05/04 06:49:17;;;;;;;11.27;6.03;;;;;;;18.30;41.99;101707.19;10492623;28;20032;-76
2022/05/04 06:54:18;;;;;;;17.03;6.13;;;;;;;18.89;40.71;101708.81;10496123;28;20077;-77
2022/05/04 06:59:18;;;;;;;16.93;6.53;;;;;;;18.92;40.12;101704.50;10495426;28;20448;-76
2022/05/04 07:04:27;;;;;;;19.70;7.35;;;;;;;15.91;45.87;101715.81;10458442;28;20055;-77
2022/05/04 07:09:28;;;;;;;13.50;6.50;;;;;;;16.74;45.39;101711.84;10472978;28;20048;-76
2022/05/04 07:14:29;;;;;;;15.90;6.85;;;;;;;18.31;43.05;101708.97;10494301;28;20072;-76
2022/05/04 07:19:29;;;;;;;13.70;6.70;;;;;;;19.73;38.20;101701.22;10488515;28;20046;-75
2022/05/04 07:24:30;;;;;;;12.73;7.33;;;;;;;20.04;37.28;101701.00;10470963;28;20120;-75
2022/05/04 07:29:30;;;;;;;18.40;7.37;;;;;;;20.87;36.74;101716.88;10483684;28;20389;-75
2022/05/04 07:34:31;;;;;;;11.03;6.87;;;;;;;21.21;34.70;101704.16;10499609;28;20075;-74
2022/05/04 07:45:01;;;;;;;12.32;6.47;;;;;;;21.20;36.82;101703.28;10493429;28;20112;-75
2022/05/04 07:50:03;;;;;;;16.27;6.32;;;;;;;21.13;35.86;101707.59;10495342;28;20024;-76
2022/05/04 07:55:04;;;;;;;19.42;7.75;;;;;;;21.69;35.01;101708.53;10495791;28;20464;-75
2022/05/04 08:05:26;;;;;;;17.30;7.77;;;;;;;21.96;35.10;101698.25;10482567;28;20041;-75
2022/05/04 08:10:27;;;;;;;19.08;9.18;;;;;;;22.42;34.23;101701.50;10443024;28;20044;-76
2022/05/04 08:15:30;;;;;;;16.93;7.33;;;;;;;23.58;32.84;101703.50;10448290;28;20365;-74
2022/05/04 08:20:33;;;;;;;15.35;6.78;;;;;;;24.01;31.31;101700.22;10415737;28;20037;-74
2022/05/04 08:25:34;;;;;;;16.73;7.25;;;;;;;23.95;32.63;101700.16;10412667;28;20045;-74
2022/05/04 08:30:35;;;;;;;14.40;6.60;;;;;;;24.27;31.79;101696.78;10396414;28;20037;-74
2022/05/04 08:35:35;;;;;;;12.43;6.83;;;;;;;24.30;31.22;101710.16;10420257;28;20084;-75
2022/05/04 08:40:42;;;;;;;22.37;8.23;;;;;;;24.17;31.72;101707.44;10421265;28;20065;-74
2022/05/04 08:45:46;;;;;;;15.65;7.45;;;;;;;24.46;29.46;101708.41;10419090;28;20041;-74
2022/05/04 08:50:52;;;;;;;19.77;6.85;;;;;;;24.11;32.75;101702.06;10419479;28;20401;-75
2022/05/04 08:55:53;;;;;;;14.80;6.57;;;;;;;23.20;33.74;101704.06;10424176;28;20052;-74
2022/05/04 09:01:02;;;;;;;11.35;6.85;;;;;;;24.37;30.08;101705.72;10443949;28;20033;-75
2022/05/04 09:06:03;;;;;;;15.85;6.35;;;;;;;24.76;29.56;101702.31;10432451;28;20056;-74
2022/05/04 09:11:04;;;;;;;12.03;7.87;;;;;;;25.77;30.38;101685.31;10416248;28;20045;-74
2022/05/04 09:16:07;;;;;;;14.40;7.37;;;;;;;26.07;28.15;101687.00;10418419;28;20084;-73
2022/05/04 09:21:08;;;;;;;11.50;9.40;;;;;;;22.49;34.88;101691.81;10425878;28;20033;-74
2022/05/04 09:26:13;;;;;;;16.73;7.13;;;;;;;23.00;31.60;101686.09;10395968;28;20075;-74
2022/05/04 09:31:14;;;;;;;15.52;9.48;;;;;;;24.73;30.21;101685.34;10399060;28;20029;-74
2022/05/04 09:36:15;;;;;;;15.17;7.00;;;;;;;24.53;31.67;101686.16;10430296;28;20040;-74
2022/05/04 09:46:42;;;;;;;14.13;8.75;;;;;;;24.64;31.28;101684.38;10437108;28;20040;-74
2022/05/04 09:51:53;;;;;;;11.68;8.27;;;;;;;26.19;28.69;101669.09;10428783;28;20053;-74
2022/05/04 09:56:54;;;;;;;11.50;7.43;;;;;;;26.67;28.15;101668.81;10411512;28;20131;-74
2022/05/04 10:02:03;;;;;;;12.65;7.28;;;;;;;26.39;25.61;101671.69;10430113;28;20024;-74
2022/05/04 10:07:04;;;;;;;12.50;7.55;;;;;;;25.82;27.42;101664.75;10423848;28;20128;-76
2022/05/04 10:12:05;;;;;;;14.30;7.80;;;;;;;26.29;26.61;101662.78;10477720;28;20048;-80
2022/05/04 10:17:25;;;;;;;12.40;7.77;;;;;;;25.45;28.35;101670.19;10449375;28;20028;-75
2022/05/04 10:22:31;;;;;;;14.68;8.73;;;;;;;25.77;25.56;101659.38;10472849;28;20689;-74
2022/05/04 10:27:35;;;;;;;21.08;8.50;;;;;;;26.64;24.55;101650.06;10470645;28;20480;-74
2022/05/04 10:32:37;;;;;;;9.30;6.95;;;;;;;26.80;25.21;101645.44;10466698;28;20040;-74
2022/05/04 10:37:57;;;;;;;13.27;6.70;;;;;;;25.48;27.69;101654.13;10473501;28;20121;-74
2022/05/04 10:43:02;;;;;;;10.40;7.95;;;;;;;24.53;28.91;101654.03;10493869;28;20095;-72
2022/05/04 10:48:15;;;;;;;11.48;6.32;;;;;;;26.08;27.21;101651.22;10450890;28;20079;-74
2022/05/04 10:53:27;;;;;;;13.75;8.07;;;;;;;26.62;26.47;101659.91;10489388;28;20036;-75
2022/05/04 10:58:50;;;;;;;16.52;7.28;;;;;;;26.16;26.60;101648.56;10469262;28;20035;-74
2022/05/04 11:04:09;;;;;;;17.40;7.15;;;;;;;25.45;29.96;101652.31;10456626;28;20047;-74
2022/05/04 11:09:11;;;;;;;14.57;8.18;;;;;;;24.92;28.38;101648.78;10456439;28;20068;-74
2022/05/04 11:14:13;;;;;;;12.05;7.95;;;;;;;25.90;26.37;101648.63;10438905;28;20060;-74
2022/05/04 11:19:14;;;;;;;15.00;6.85;;;;;;;25.90;25.55;101643.25;10478273;28;20040;-75
2022/05/04 11:24:15;;;;;;;17.02;7.43;;;;;;;25.67;27.51;101638.00;10476977;28;20115;-74
2022/05/04 11:29:20;;;;;;;12.25;8.00;;;;;;;26.20;29.02;101641.38;10497364;28;20035;-75
2022/05/04 11:34:21;;;;;;;12.90;7.72;;;;;;;25.05;27.61;101638.94;10496436;28;20040;-75
2022/05/04 11:39:26;;;;;;;9.52;7.05;;;;;;;25.40;26.97;101638.00;10463714;28;20024;-74
2022/05/04 11:44:28;;;;;;;8.85;6.50;;;;;;;26.17;26.40;101625.28;10450345;28;20025;-74
2022/05/04 11:49:29;;;;;;;12.48;7.70;;;;;;;26.34;25.16;101623.41;10455874;28;20107;-75
2022/05/04 11:54:30;;;;;;;;;;;;;;;26.03;28.25;101611.94;10489037;28;20059;-76
2022/05/04 11:59:31;;;;;;;10.57;8.30;;;;;;;25.38;28.09;101620.16;10494565;28;20352;-76
2022/05/04 12:04:33;;;;;;;16.83;8.67;;;;;;;25.15;27.05;101615.75;10453720;28;20395;-76
2022/05/04 12:09:33;;;;;;;14.00;7.97;;;;;;;25.63;28.31;101615.66;10485297;28;20131;-75
2022/05/04 12:14:34;;;;;;;14.97;9.00;;;;;;;25.93;26.01;101613.75;10492891;28;20147;-76
2022/05/04 12:19:34;;;;;;;13.70;8.07;;;;;;;26.08;25.47;101605.63;10490937;28;20056;-75
2022/05/04 12:24:35;;;;;;;15.17;8.73;;;;;;;26.59;24.63;101604.44;10491789;28;20901;-75
2022/05/04 12:34:55;;;;;;;16.85;10.15;;;;;;;25.68;27.82;101599.56;10480146;28;20036;-75
2022/05/04 12:39:56;;;;;;;15.38;8.50;;;;;;;26.62;26.04;101599.06;10458447;28;20029;-74
2022/05/04 12:44:59;;;;;;;11.70;7.70;;;;;;;26.62;25.88;101601.75;10480305;28;20072;-74
2022/05/04 12:49:59;;;;;;;11.63;7.38;;;;;;;26.18;24.52;101593.09;10455450;28;20036;-74
2022/05/04 12:55:00;;;;;;;14.90;7.10;;;;;;;25.15;26.45;101594.31;10490598;28;20071;-73
2022/05/04 13:00:00;;;;;;;9.73;6.90;;;;;;;24.99;25.22;101585.41;10489758;28;20059;-74
2022/05/04 13:05:02;;;;;;;13.87;9.10;;;;;;;24.53;29.22;101588.94;10493190;28;20144;-73
2022/05/04 13:10:04;;;;;;;15.90;8.48;;;;;;;24.89;25.72;101580.06;10442670;28;20041;-73
2022/05/04 13:15:05;;;;;;;11.63;7.83;;;;;;;24.71;26.81;101574.69;10434693;28;20116;-74
2022/05/04 13:20:06;;;;;;;13.77;9.63;;;;;;;25.15;25.58;101568.41;10457047;28;20287;-74
2022/05/04 13:25:08;;;;;;;14.13;7.85;;;;;;;25.27;27.53;101556.78;10449971;28;20021;-73
2022/05/04 13:30:09;;;;;;;;;;;;;;;24.99;24.66;101554.19;10411159;28;20539;-73
2022/05/04 13:35:09;;;;;;;11.15;7.13;;;;;;;24.89;26.32;101558.63;10455923;28;19920;-73
2022/05/04 13:40:10;;;;;;;13.60;8.57;;;;;;;25.49;25.34;101551.41;10426828;28;20473;-74
2022/05/04 13:45:11;;;;;;;15.73;8.17;;;;;;;26.26;25.28;101542.06;10436282;28;20044;-74
2022/05/04 13:55:38;;;;;;;11.07;6.43;;;;;;;25.62;26.86;101546.88;10417948;28;20140;-75
2022/05/04 14:00:39;;;;;;;13.47;7.77;;;;;;;25.84;26.02;101545.00;10456728;28;20484;-75
2022/05/04 14:05:42;;;;;;;11.00;7.93;;;;;;;25.56;25.18;101539.75;10423909;28;20372;-74
2022/05/04 14:10:46;;;;;;;10.68;5.93;;;;;;;25.19;24.67;101530.03;10440452;28;20118;-75
2022/05/04 14:15:49;;;;;;;13.35;7.07;;;;;;;25.18;26.44;101535.41;10440210;28;20690;-75
2022/05/04 14:20:51;;;;;;;10.48;5.78;;;;;;;25.04;27.59;101530.06;10457117;28;20496;-75
2022/05/04 14:25:52;;;;;;;7.88;5.65;;;;;;;25.05;25.84;101527.38;10439460;28;20103;-75
2022/05/04 14:31:01;;;;;;;9.33;6.33;;;;;;;25.30;26.43;101521.97;10457511;28;20047;-75
2022/05/04 14:36:02;;;;;;;10.80;6.70;;;;;;;24.75;25.90;101515.84;10456197;28;20389;-74
2022/05/04 14:41:04;;;;;;;11.23;6.37;;;;;;;24.22;27.50;101519.38;10439668;28;20111;-74
2022/05/04 14:46:04;;;;;;;;;;;;;;;23.73;26.52;101518.34;10429122;28;20481;-74
2022/05/04 14:51:05;;;;;;;8.75;5.72;;;;;;;23.63;28.63;101517.41;10440465;28;19951;-74
2022/05/04 14:56:06;;;;;;;11.97;5.40;;;;;;;22.66;27.29;101507.94;10419490;28;20065;-74
2022/05/04 15:01:06;;;;;;;10.37;5.70;;;;;;;22.63;27.21;101509.69;10397355;28;20639;-75
2022/05/04 15:06:08;;;;;;;14.83;6.90;;;;;;;22.83;28.77;101509.84;10442807;28;20175;-73
2022/05/04 15:11:09;;;;;;;9.60;5.63;;;;;;;22.63;29.53;101502.59;10454055;28;20037;-73
2022/05/04 15:16:12;;;;;;;11.20;6.15;;;;;;;22.39;29.53;101513.88;10455083;28;20112;-74
2022/05/04 15:21:13;;;;;;;9.52;5.05;;;;;;;21.88;30.37;101500.97;10436608;28;20166;-73
2022/05/04 15:26:13;;;;;;;8.73;4.85;;;;;;;20.57;31.71;101510.66;10454720;28;20496;-73
2022/05/04 15:31:14;;;;;;;10.45;5.80;;;;;;;19.57;33.49;101511.44;10454591;28;20045;-73
2022/05/04 15:36:14;;;;;;;9.88;5.55;;;;;;;19.08;35.67;101512.16;10449121;28;20056;-73
2022/05/04 15:41:20;;;;;;;8.82;4.82;;;;;;;19.01;33.42;101506.69;10443992;28;20068;-73
2022/05/04 15:46:25;;;;;;;11.73;5.88;;;;;;;18.76;35.87;101508.75;10438024;28;20045;-73
2022/05/04 15:51:29;;;;;;;16.60;5.72;;;;;;;18.52;35.50;101509.00;10437266;28;20090;-74
2022/05/04 15:56:30;;;;;;;21.90;5.90;;;;;;;17.96;36.65;101503.16;10437698;28;20075;-73
2022/05/04 16:01:34;;;;;;;14.05;7.15;;;;;;;17.40;39.26;101503.31;10436379;28;20480;-73
2022/05/04 16:06:42;;;;;;;13.02;6.28;;;;;;;17.11;41.19;101508.63;10453558;28;20507;-73
2022/05/04 16:11:50;;;;;;;14.15;7.50;;;;;;;17.48;39.77;101507.06;10416518;28;20053;-75
2022/05/04 16:22:22;;;;;;;13.68;7.03;;;;;;;18.10;37.96;101508.84;10451852;28;20052;-74
2022/05/04 16:27:29;;;;;;;12.52;6.60;;;;;;;17.81;37.55;101514.19;10452874;28;20374;-73
2022/05/04 16:32:31;;;;;;;13.38;6.72;;;;;;;17.78;37.64;101507.94;10445608;28;20048;-74
2022/05/04 16:37:38;;;;;;;11.70;5.97;;;;;;;17.47;39.03;101515.88;10450663;28;20571;-74
2022/05/04 16:42:44;;;;;;;13.07;5.90;;;;;;;17.04;39.69;101510.19;10390728;28;20299;-74
2022/05/04 16:47:48;;;;;;;11.40;6.32;;;;;;;16.63;41.82;101523.81;10436161;28;20051;-75
2022/05/04 16:53:01;;;;;;;23.55;9.57;;;;;;;16.81;40.57;101522.63;10428503;28;20044;-76
2022/05/04 16:58:07;;;;;;;11.05;6.43;;;;;;;16.72;41.24;101518.81;10457913;28;20033;-76
2022/05/04 17:03:19;;;;;;;17.25;7.15;;;;;;;16.43;41.81;101526.69;10450704;28;20426;-75
2022/05/04 17:08:22;;;;;;;13.40;6.68;;;;;;;16.21;41.97;101537.34;10451249;28;20407;-74
2022/05/04 17:13:29;;;;;;;10.45;6.22;;;;;;;16.07;43.06;101529.84;10429816;28;20155;-73
2022/05/04 17:18:30;;;;;;;13.60;6.50;;;;;;;16.04;42.04;101527.09;10456768;28;20083;-76
2022/05/04 17:23:33;;;;;;;10.10;5.47;;;;;;;16.00;43.42;101541.94;10424021;28;20495;-77
2022/05/04 17:28:36;;;;;;;16.08;8.02;;;;;;;15.99;43.90;101533.94;10458253;28;20041;-77
2022/05/04 17:39:03;;;;;;;13.48;6.00;;;;;;;15.87;44.45;101542.34;10441983;28;20032;-76
2022/05/04 17:44:10;;;;;;;15.95;7.65;;;;;;;15.87;42.67;101547.63;10454928;28;20486;-74
2022/05/04 17:49:23;;;;;;;8.88;5.07;;;;;;;15.61;43.68;101550.16;10459308;28;20677;-75
2022/05/04 17:54:26;;;;;;;14.37;6.17;;;;;;;15.22;44.82;101551.28;10457055;28;20036;-76
2022/05/04 17:59:31;;;;;;;9.30;5.57;;;;;;;15.14;43.88;101555.34;10457610;28;20404;-76
2022/05/04 18:04:32;;;;;;;10.95;5.88;;;;;;;14.86;45.05;101550.72;10439489;28;20106;-76
2022/05/04 18:09:34;;;;;;;12.77;6.75;;;;;;;14.77;44.82;101549.50;10459092;28;20045;-73
2022/05/04 18:14:36;;;;;;;15.32;6.80;;;;;;;14.59;46.42;101560.13;10454769;28;20233;-74
2022/05/04 18:19:37;;;;;;;10.57;6.15;;;;;;;14.39;46.81;101557.53;10435197;28;20481;-75
2022/05/04 18:24:41;;;;;;;13.93;6.43;;;;;;;14.09;49.13;101567.66;10446330;28;20060;-75
2022/05/04 18:29:42;;;;;;;15.05;6.03;;;;;;;13.77;50.73;101574.97;10457225;28;20078;-73
2022/05/04 18:34:42;;;;;;;15.57;6.28;;;;;;;13.39;51.80;101579.31;10455638;28;20114;-74
2022/05/04 18:39:43;;;;;;;15.70;6.85;;;;;;;13.21;52.48;101582.88;10450594;28;20460;-73
2022/05/04 18:44:43;;;;;;;19.05;8.45;;;;;;;12.87;53.76;101589.09;10437805;28;20035;-74
2022/05/04 18:49:44;;;;;;;12.00;6.47;;;;;;;12.45;55.27;101593.16;10453963;28;20171;-74
2022/05/04 18:54:45;;;;;;;14.35;6.03;;;;;;;12.11;55.80;101598.34;10421313;28;20063;-74
2022/05/04 18:59:47;;;;;;;12.67;5.60;;;;;;;11.79;58.85;101597.47;10436339;28;20495;-75
2022/05/04 19:04:47;;;;;;;9.93;4.97;;;;;;;11.47;58.95;101605.41;10439670;28;20025;-75
2022/05/04 19:09:48;;;;;;;11.38;5.22;;;;;;;11.03;60.16;101620.38;10473618;28;20484;-75
2022/05/04 19:14:48;;;;;;;12.65;6.93;;;;;;;10.70;60.94;101623.75;10455489;28;20048;-75
2022/05/04 19:19:49;;;;;;;13.00;5.30;;;;;;;10.46;61.44;101631.03;10456696;28;20084;-75
2022/05/04 19:24:49;;;;;;;8.73;4.70;;;;;;;10.18;62.94;101636.28;10462274;28;20112;-75
2022/05/04 19:29:51;;;;;;;8.43;5.60;;;;;;;9.90;64.28;101645.00;10493470;28;20415;-75
2022/05/04 19:34:51;;;;;;;13.00;5.53;;;;;;;9.72;65.17;101652.59;10495185;28;20036;-75
2022/05/04 19:39:52;;;;;;;9.23;4.18;;;;;;;9.65;66.57;101660.03;10494311;28;20463;-74
2022/05/04 19:44:52;;;;;;;7.93;4.00;;;;;;;9.34;68.15;101662.38;10492611;28;20040;-75
2022/05/04 19:49:53;;;;;;;11.10;5.80;;;;;;;9.16;69.69;101673.44;10496663;28;20032;-74
2022/05/04 19:54:54;;;;;;;12.73;4.65;;;;;;;9.11;70.62;101678.34;10494541;28;20116;-74
2022/05/04 19:59:54;;;;;;;11.20;6.65;;;;;;;8.96;70.14;101679.91;10492201;28;20503;-76
2022/05/04 20:04:55;;;;;;;10.25;5.43;;;;;;;8.84;70.68;101677.41;10494803;28;20084;-75
2022/05/04 20:09:55;;;;;;;10.45;4.90;;;;;;;8.75;70.94;101685.50;10458540;28;20076;-75
2022/05/04 20:14:56;;;;;;;25.98;5.93;;;;;;;8.71;70.82;101679.97;10419849;28;20131;-75
2022/05/04 20:19:57;;;;;;;14.98;6.22;;;;;;;8.65;71.43;101688.28;10453551;28;20111;-75
2022/05/04 20:25:00;;;;;;;14.07;7.88;;;;;;;8.57;71.79;101690.38;10454433;28;20032;-75
2022/05/04 20:30:00;;;;;;;20.70;7.30;;;;;;;8.49;71.50;101689.81;10408844;28;20607;-75
2022/05/04 20:35:01;;;;;;;13.80;7.68;;;;;;;8.48;71.91;101695.81;10408541;28;20144;-75
2022/05/04 20:40:03;;;;;;;12.68;6.05;;;;;;;8.41;72.44;101692.69;10408075;28;20025;-75
2022/05/04 20:45:04;;;;;;;13.45;7.63;;;;;;;8.38;72.92;101688.16;10428509;28;20055;-75
2022/05/04 20:55:24;;;;;;;14.77;7.40;;;;;;;8.27;74.57;101697.84;10445207;28;20477;-75
2022/05/04 21:00:25;;;;;;;12.30;6.43;;;;;;;8.17;74.77;101698.00;10447306;28;20114;-75
2022/05/04 21:05:26;;;;;;;14.75;6.95;;;;;;;7.92;74.84;101696.25;10466573;28;20075;-75
2022/05/04 21:10:26;;;;;;;15.75;8.65;;;;;;;7.65;75.61;101701.28;10505020;28;20070;-75
2022/05/04 21:15:27;;;;;;;16.55;10.45;;;;;;;7.49;77.33;101702.75;10507191;28;20059;-75
2022/05/04 21:20:28;;;;;;;17.60;9.23;;;;;;;7.40;77.82;101712.50;10488941;28;20052;-75
2022/05/04 21:25:34;;;;;;;17.38;8.95;;;;;;;7.28;78.11;101730.69;10508922;28;20044;-75
2022/05/04 21:30:35;;;;;;;20.15;10.20;;;;;;;7.23;78.35;101731.16;10506071;28;20443;-75
2022/05/04 21:35:36;;;;;;;24.92;12.30;;;;;;;7.25;78.71;101735.69;10490079;28;20166;-74
2022/05/04 21:40:36;;;;;;;19.33;10.40;;;;;;;7.24;79.38;101746.88;10464991;28;20035;-79
2022/05/04 21:45:37;;;;;;;17.20;8.45;;;;;;;7.35;79.11;101745.09;10465358;28;20118;-74
2022/05/04 21:50:38;;;;;;;15.60;9.15;;;;;;;7.56;79.26;101750.09;10482203;28;20068;-74
2022/05/04 21:55:38;;;;;;;17.52;8.80;;;;;;;7.71;79.22;101750.31;10482289;28;20037;-75
2022/05/04 22:00:41;;;;;;;15.80;8.35;;;;;;;7.80;78.97;101743.16;10477833;28;20048;-73
2022/05/04 22:05:44;;;;;;;19.67;10.30;;;;;;;7.92;78.66;101746.66;10473295;28;20485;-74
2022/05/04 22:16:06;;;;;;;16.43;7.77;;;;;;;8.06;77.94;101751.97;10485918;28;20040;-74
2022/05/04 22:21:07;;;;;;;15.98;8.68;;;;;;;8.01;77.62;101751.66;10475059;28;20469;-75
2022/05/04 22:26:07;;;;;;;17.33;10.07;;;;;;;7.94;77.81;101760.72;10467994;28;20036;-74
2022/05/04 22:31:08;;;;;;;24.35;9.90;;;;;;;8.04;78.22;101763.97;10446383;28;20031;-74
2022/05/04 22:36:09;;;;;;;20.65;10.18;;;;;;;8.17;78.22;101768.41;10497908;28;20052;-76
2022/05/04 22:41:10;;;;;;;19.48;8.32;;;;;;;8.26;77.81;101770.75;10453756;28;20043;-77
2022/05/04 22:46:10;;;;;;;18.98;10.27;;;;;;;8.33;78.52;101770.38;10496706;28;20056;-77
2022/05/04 22:51:11;;;;;;;19.27;11.05;;;;;;;8.45;79.14;101781.69;10495582;28;20078;-76
2022/05/04 22:56:11;;;;;;;21.42;11.02;;;;;;;8.51;78.85;101776.06;10496906;28;20040;-77
2022/05/04 23:01:13;;;;;;;30.17;13.63;;;;;;;8.53;79.67;101782.28;10495444;28;20068;-77
2022/05/04 23:06:14;;;;;;;18.50;12.17;;;;;;;8.48;79.23;101776.69;10493023;28;20124;-77
2022/05/04 23:11:14;;;;;;;20.17;12.77;;;;;;;8.41;79.20;101777.06;10438914;28;20392;-76
2022/05/04 23:16:15;;;;;;;24.83;10.93;;;;;;;8.41;79.73;101782.28;10438711;28;20119;-76
2022/05/04 23:21:16;;;;;;;18.85;9.65;;;;;;;8.49;80.78;101775.03;10452538;28;20029;-77
2022/05/04 23:26:16;;;;;;;24.65;14.85;;;;;;;8.58;80.62;101783.50;10456507;28;20048;-77
2022/05/04 23:31:17;;;;;;;25.95;13.95;;;;;;;8.65;80.82;101783.16;10454636;28;20546;-76
2022/05/04 23:41:37;;;;;;;23.30;13.52;;;;;;;8.62;78.74;101782.94;10454143;28;20025;-76
2022/05/04 23:46:37;;;;;;;25.95;14.77;;;;;;;8.57;79.16;101788.59;10455424;28;20037;-76
2022/05/04 23:51:38;;;;;;;24.15;15.93;;;;;;;8.55;79.67;101787.59;10434762;28;20052;-77
2022/05/04 23:56:39;;;;;;;21.45;13.35;;;;;;;8.55;79.08;101783.28;10404219;28;20120;-76
